sensor_id;sensor_type;location;lat;lon;timestamp;P1;P2;P0
74432;PMS7003;62865;53.146;23.172;2023-03-01T00:01:20;16.2;13.6;8.8
74432;PMS7003;62865;53.146;23.172;2023-03-01T00:06:33;17.2;14.6;8.8
74432;PMS7003;62865;53.146;23.172;2023-03-01T00:11:37;14.6;12;7.6
74432;PMS7003;62865;53.146;23.172;2023-03-01T00:16:32;15;12.6;7.4
74432;PMS7003;62865;53.146;23.172;2023-03-01T00:21:37;15.4;13.4;8.6
74432;PMS7003;62865;53.146;23.172;2023-03-01T00:26:33;15.4;13.8;8.6
74432;PMS7003;62865;53.146;23.172;2023-03-01T00:31:33;15.4;13;8.6
74432;PMS7003;62865;53.146;23.172;2023-03-01T00:36:26;15.2;11.2;7.4
74432;PMS7003;62865;53.146;23.172;2023-03-01T00:41:19;15.8;12.8;8.4
74432;PMS7003;62865;53.146;23.172;2023-03-01T00:46:41;17.4;14.2;9.8
74432;PMS7003;62865;53.146;23.172;2023-03-01T00:51:27;18.2;15.6;10
74432;PMS7003;62865;53.146;23.172;2023-03-01T00:56:27;17.2;14.8;10
74432;PMS7003;62865;53.146;23.172;2023-03-01T01:01:21;15.4;13.4;9.8
74432;PMS7003;62865;53.146;23.172;2023-03-01T01:06:26;17.8;14;9.2
74432;PMS7003;62865;53.146;23.172;2023-03-01T01:11:53;19;15.8;10
74432;PMS7003;62865;53.146;23.172;2023-03-01T01:16:33;19;16;10.4
74432;PMS7003;62865;53.146;23.172;2023-03-01T01:21:41;21;16.4;10.4
74432;PMS7003;62865;53.146;23.172;2023-03-01T01:26:20;16.8;15;10.2
74432;PMS7003;62865;53.146;23.172;2023-03-01T01:31:19;22.6;18.2;10
74432;PMS7003;62865;53.146;23.172;2023-03-01T01:36:32;18.4;15.4;10.8
74432;PMS7003;62865;53.146;23.172;2023-03-01T01:41:20;19.4;15.2;10
74432;PMS7003;62865;53.146;23.172;2023-03-01T01:46:33;18.2;15;10.6
74432;PMS7003;62865;53.146;23.172;2023-03-01T01:51:20;20.8;17;10.2
74432;PMS7003;62865;53.146;23.172;2023-03-01T01:56:31;19.4;16.2;10
74432;PMS7003;62865;53.146;23.172;2023-03-01T02:01:41;20.3;16;9.8
74432;PMS7003;62865;53.146;23.172;2023-03-01T02:06:21;20.4;17.2;10.6
74432;PMS7003;62865;53.146;23.172;2023-03-01T02:11:41;18.2;14.6;10.2
74432;PMS7003;62865;53.146;23.172;2023-03-01T02:16:19;21;17.6;10.6
74432;PMS7003;62865;53.146;23.172;2023-03-01T02:21:25;19;16.8;11
74432;PMS7003;62865;53.146;23.172;2023-03-01T02:26:33;19.8;17.2;11.4
74432;PMS7003;62865;53.146;23.172;2023-03-01T02:31:33;19.2;17.6;10.6
74432;PMS7003;62865;53.146;23.172;2023-03-01T02:36:59;16.8;15.8;10.2
74432;PMS7003;62865;53.146;23.172;2023-03-01T02:41:28;17.2;14.6;8.8
74432;PMS7003;62865;53.146;23.172;2023-03-01T02:46:25;19.4;15;9.8
74432;PMS7003;62865;53.146;23.172;2023-03-01T02:51:27;18;15.6;10.6
74432;PMS7003;62865;53.146;23.172;2023-03-01T02:57:03;18.2;14.2;9.8
74432;PMS7003;62865;53.146;23.172;2023-03-01T03:01:41;20.6;16.6;10.8
74432;PMS7003;62865;53.146;23.172;2023-03-01T03:06:19;19.4;15;9.6
74432;PMS7003;62865;53.146;23.172;2023-03-01T03:11:37;18.2;14.6;10.2
74432;PMS7003;62865;53.146;23.172;2023-03-01T03:16:25;18.6;15.6;10
74432;PMS7003;62865;53.146;23.172;2023-03-01T03:21:19;15.8;14;9.4
74432;PMS7003;62865;53.146;23.172;2023-03-01T03:26:41;18.8;14.2;9.8
74432;PMS7003;62865;53.146;23.172;2023-03-01T03:31:47;18.4;15;10.4
74432;PMS7003;62865;53.146;23.172;2023-03-01T03:36:31;21;17.2;10.8
74432;PMS7003;62865;53.146;23.172;2023-03-01T03:41:37;18.4;15.2;9.8
74432;PMS7003;62865;53.146;23.172;2023-03-01T03:46:19;15.4;15.2;10
74432;PMS7003;62865;53.146;23.172;2023-03-01T03:51:19;19;15.8;10.2
74432;PMS7003;62865;53.146;23.172;2023-03-01T03:56:25;20.2;17;10.2
74432;PMS7003;62865;53.146;23.172;2023-03-01T04:01:19;16.8;15.2;11
74432;PMS7003;62865;53.146;23.172;2023-03-01T04:06:19;17.8;15.6;9
74432;PMS7003;62865;53.146;23.172;2023-03-01T04:11:19;21.2;17;10.6
74432;PMS7003;62865;53.146;23.172;2023-03-01T04:16:41;20.8;16.8;11.2
74432;PMS7003;62865;53.146;23.172;2023-03-01T04:21:27;21.6;18.8;11.6
74432;PMS7003;62865;53.146;23.172;2023-03-01T04:26:37;23.6;18.4;10.6
74432;PMS7003;62865;53.146;23.172;2023-03-01T04:31:25;19.8;17;10.8
74432;PMS7003;62865;53.146;23.172;2023-03-01T04:36:20;18.4;14.8;9.6
74432;PMS7003;62865;53.146;23.172;2023-03-01T04:41:20;18.6;15.8;10.4
74432;PMS7003;62865;53.146;23.172;2023-03-01T04:46:20;17.6;14.6;9
74432;PMS7003;62865;53.146;23.172;2023-03-01T04:51:31;19.8;17.4;11.8
74432;PMS7003;62865;53.146;23.172;2023-03-01T04:56:23;17.6;15.6;10.4
74432;PMS7003;62865;53.146;23.172;2023-03-01T05:01:37;23.8;17.6;10.8
74432;PMS7003;62865;53.146;23.172;2023-03-01T05:06:25;21.8;18;12
74432;PMS7003;62865;53.146;23.172;2023-03-01T05:11:31;20;18;11.8
74432;PMS7003;62865;53.146;23.172;2023-03-01T05:16:23;20;16;10.6
74432;PMS7003;62865;53.146;23.172;2023-03-01T05:21:17;23.8;19.2;12
74432;PMS7003;62865;53.146;23.172;2023-03-01T05:26:23;22.8;18.4;11.2
74432;PMS7003;62865;53.146;23.172;2023-03-01T05:31:17;25;21.6;13.2
74432;PMS7003;62865;53.146;23.172;2023-03-01T05:36:17;22.4;17.4;10.2
74432;PMS7003;62865;53.146;23.172;2023-03-01T05:41:17;24.2;19.4;12.2
74432;PMS7003;62865;53.146;23.172;2023-03-01T05:46:17;22.6;17.6;10.8
74432;PMS7003;62865;53.146;23.172;2023-03-01T05:51:17;21.6;19.4;13.6
74432;PMS7003;62865;53.146;23.172;2023-03-01T05:56:17;24;19.4;12
74432;PMS7003;62865;53.146;23.172;2023-03-01T06:01:25;19.6;16.6;10
74432;PMS7003;62865;53.146;23.172;2023-03-01T06:06:17;24.8;19;11.6
74432;PMS7003;62865;53.146;23.172;2023-03-01T06:11:25;19;16.8;10.2
74432;PMS7003;62865;53.146;23.172;2023-03-01T06:16:37;21.6;17.8;11.2
74432;PMS7003;62865;53.146;23.172;2023-03-01T06:21:31;16;13.6;8.4
74432;PMS7003;62865;53.146;23.172;2023-03-01T06:26:25;18.4;15.8;10.4
74432;PMS7003;62865;53.146;23.172;2023-03-01T06:32:03;16.8;14.2;8.4
74432;PMS7003;62865;53.146;23.172;2023-03-01T06:36:25;18;15;10.6
74432;PMS7003;62865;53.146;23.172;2023-03-01T06:41:17;18.4;15.2;10
74432;PMS7003;62865;53.146;23.172;2023-03-01T06:46:31;20.4;16.8;10.4
74432;PMS7003;62865;53.146;23.172;2023-03-01T06:51:17;20.4;16.2;11.2
74432;PMS7003;62865;53.146;23.172;2023-03-01T06:56:29;17.4;15.6;9.8
74432;PMS7003;62865;53.146;23.172;2023-03-01T07:01:17;23.8;19;11
74432;PMS7003;62865;53.146;23.172;2023-03-01T07:06:39;23.2;18.8;11.6
74432;PMS7003;62865;53.146;23.172;2023-03-01T07:11:31;20.8;17.3;11
74432;PMS7003;62865;53.146;23.172;2023-03-01T07:16:19;23;17.2;10.6
74432;PMS7003;62865;53.146;23.172;2023-03-01T07:21:31;19.2;14.8;10.2
74432;PMS7003;62865;53.146;23.172;2023-03-01T07:26:41;23.6;18.6;11.4
74432;PMS7003;62865;53.146;23.172;2023-03-01T07:31:19;22.8;16.8;10.6
74432;PMS7003;62865;53.146;23.172;2023-03-01T07:36:33;23.8;19.4;11.6
74432;PMS7003;62865;53.146;23.172;2023-03-01T07:41:33;23.8;18.4;10.6
74432;PMS7003;62865;53.146;23.172;2023-03-01T07:46:41;21.6;19.6;11.6
74432;PMS7003;62865;53.146;23.172;2023-03-01T07:51:42;24.2;20.2;13.4
74432;PMS7003;62865;53.146;23.172;2023-03-01T07:56:41;23.2;19.2;13.2
74432;PMS7003;62865;53.146;23.172;2023-03-01T08:01:18;25.6;20.4;12.2
74432;PMS7003;62865;53.146;23.172;2023-03-01T08:06:17;26.8;20.6;12.8
74432;PMS7003;62865;53.146;23.172;2023-03-01T08:11:39;24.6;19.6;11.8
74432;PMS7003;62865;53.146;23.172;2023-03-01T08:16:27;27;22.8;12.8
74432;PMS7003;62865;53.146;23.172;2023-03-01T08:21:27;21.8;17.4;11.2
74432;PMS7003;62865;53.146;23.172;2023-03-01T08:26:18;24.2;19.2;12
74432;PMS7003;62865;53.146;23.172;2023-03-01T08:31:41;23.6;20.2;12
74432;PMS7003;62865;53.146;23.172;2023-03-01T08:36:42;23.6;19.4;12
74432;PMS7003;62865;53.146;23.172;2023-03-01T08:41:19;25;20.4;13.4
74432;PMS7003;62865;53.146;23.172;2023-03-01T08:46:32;22.8;19.8;12.4
74432;PMS7003;62865;53.146;23.172;2023-03-01T08:51:18;26.4;21.2;12.4
74432;PMS7003;62865;53.146;23.172;2023-03-01T08:56:37;25.2;20.8;12.8
74432;PMS7003;62865;53.146;23.172;2023-03-01T09:01:29;23.8;19.2;12.2
74432;PMS7003;62865;53.146;23.172;2023-03-01T09:06:39;23.4;21;12.6
74432;PMS7003;62865;53.146;23.172;2023-03-01T09:11:18;23.6;19.2;11.6
74432;PMS7003;62865;53.146;23.172;2023-03-01T09:16:31;26.6;22.4;12.8
74432;PMS7003;62865;53.146;23.172;2023-03-01T09:21:39;24.8;22;13
74432;PMS7003;62865;53.146;23.172;2023-03-01T09:26:31;25.6;20.6;13
74432;PMS7003;62865;53.146;23.172;2023-03-01T09:31:27;23.8;19.2;12.6
74432;PMS7003;62865;53.146;23.172;2023-03-01T09:36:25;27;22.6;13.4
74432;PMS7003;62865;53.146;23.172;2023-03-01T09:41:36;26.6;22;13.4
74432;PMS7003;62865;53.146;23.172;2023-03-01T09:46:36;25.4;20.8;12.4
74432;PMS7003;62865;53.146;23.172;2023-03-01T09:51:18;22.6;19.2;12.8
74432;PMS7003;62865;53.146;23.172;2023-03-01T09:56:32;23.4;21.2;13
74432;PMS7003;62865;53.146;23.172;2023-03-01T10:01:23;25.8;20.2;12.6
74432;PMS7003;62865;53.146;23.172;2023-03-01T10:06:19;25.8;19.8;13.4
74432;PMS7003;62865;53.146;23.172;2023-03-01T10:11:19;24.6;21.8;12.8
74432;PMS7003;62865;53.146;23.172;2023-03-01T10:16:43;23.4;20.6;13
74432;PMS7003;62865;53.146;23.172;2023-03-01T10:21:27;23.4;20.8;13.2
74432;PMS7003;62865;53.146;23.172;2023-03-01T10:26:23;25.4;19.6;12.8
74432;PMS7003;62865;53.146;23.172;2023-03-01T10:31:33;28;22.2;13.4
74432;PMS7003;62865;53.146;23.172;2023-03-01T10:36:25;27.6;22.6;13.6
74432;PMS7003;62865;53.146;23.172;2023-03-01T10:41:29;25.2;19.2;12.6
74432;PMS7003;62865;53.146;23.172;2023-03-01T10:46:28;24.4;20.6;13
74432;PMS7003;62865;53.146;23.172;2023-03-01T10:51:17;24;20.4;12.8
74432;PMS7003;62865;53.146;23.172;2023-03-01T10:56:29;26;20.2;12.2
74432;PMS7003;62865;53.146;23.172;2023-03-01T11:01:25;24.2;20.8;13.6
74432;PMS7003;62865;53.146;23.172;2023-03-01T11:06:29;23;18.2;12.2
74432;PMS7003;62865;53.146;23.172;2023-03-01T11:11:40;26.6;21.8;12.4
74432;PMS7003;62865;53.146;23.172;2023-03-01T11:16:22;27.4;21.8;13.2
74432;PMS7003;62865;53.146;23.172;2023-03-01T11:21:30;23.6;19;12.2
74432;PMS7003;62865;53.146;23.172;2023-03-01T11:26:25;21.4;19.2;13
74432;PMS7003;62865;53.146;23.172;2023-03-01T11:31:41;24.6;21.4;13.2
74432;PMS7003;62865;53.146;23.172;2023-03-01T11:36:19;23;19.8;12.6
74432;PMS7003;62865;53.146;23.172;2023-03-01T11:41:18;22.6;20.2;13.2
74432;PMS7003;62865;53.146;23.172;2023-03-01T11:46:36;28;23.2;14.6
74432;PMS7003;62865;53.146;23.172;2023-03-01T11:51:38;26;22;13.4
74432;PMS7003;62865;53.146;23.172;2023-03-01T11:56:53;24.8;21.6;14.2
74432;PMS7003;62865;53.146;23.172;2023-03-01T12:01:41;24;20.4;12.4
74432;PMS7003;62865;53.146;23.172;2023-03-01T12:06:24;25.6;21.8;13.4
74432;PMS7003;62865;53.146;23.172;2023-03-01T12:11:19;22.4;20;11.8
74432;PMS7003;62865;53.146;23.172;2023-03-01T12:16:24;26;21.8;12.8
74432;PMS7003;62865;53.146;23.172;2023-03-01T12:21:18;23.3;20.8;12.5
74432;PMS7003;62865;53.146;23.172;2023-03-01T12:26:39;24.6;20.6;12.6
74432;PMS7003;62865;53.146;23.172;2023-03-01T12:32:01;22.8;19.8;12.4
74432;PMS7003;62865;53.146;23.172;2023-03-01T12:36:31;20.4;17.6;11.6
74432;PMS7003;62865;53.146;23.172;2023-03-01T12:41:28;25.6;23.2;13.8
74432;PMS7003;62865;53.146;23.172;2023-03-01T12:46:20;22.2;19;11.6
74432;PMS7003;62865;53.146;23.172;2023-03-01T12:51:16;26;20.4;12
74432;PMS7003;62865;53.146;23.172;2023-03-01T12:56:17;23;19.8;12.6
74432;PMS7003;62865;53.146;23.172;2023-03-01T13:01:22;25.2;20.6;12.8
74432;PMS7003;62865;53.146;23.172;2023-03-01T13:06:27;23.4;19.2;12.4
74432;PMS7003;62865;53.146;23.172;2023-03-01T13:11:29;23.2;19.2;11.6
74432;PMS7003;62865;53.146;23.172;2023-03-01T13:16:21;22.4;18;12.4
74432;PMS7003;62865;53.146;23.172;2023-03-01T13:21:38;22.6;19.8;12
74432;PMS7003;62865;53.146;23.172;2023-03-01T13:26:18;23.6;19.6;11.8
74432;PMS7003;62865;53.146;23.172;2023-03-01T13:49:01;22.5;18.5;12.5
74432;PMS7003;62865;53.146;23.172;2023-03-01T14:09:15;20;19;12
74432;PMS7003;62865;53.146;23.172;2023-03-01T14:13:31;24.6;19.8;11.8
74432;PMS7003;62865;53.146;23.172;2023-03-01T14:18:38;23.4;18.4;12.2
74432;PMS7003;62865;53.146;23.172;2023-03-01T14:24:13;17.4;14.8;10
74432;PMS7003;62865;53.146;23.172;2023-03-01T14:28:50;19;15.8;10.2
74432;PMS7003;62865;53.146;23.172;2023-03-01T14:33:29;21.2;17;11
74432;PMS7003;62865;53.146;23.172;2023-03-01T14:38:41;21.6;16.8;11.2
74432;PMS7003;62865;53.146;23.172;2023-03-01T14:43:38;19.8;17.4;10
74432;PMS7003;62865;53.146;23.172;2023-03-01T14:48:28;20.2;17.2;11.2
74432;PMS7003;62865;53.146;23.172;2023-03-01T14:53:50;22;17.8;11.2
74432;PMS7003;62865;53.146;23.172;2023-03-01T14:58:36;19;15.4;10.4
74432;PMS7003;62865;53.146;23.172;2023-03-01T15:03:30;21.6;18;10.8
74432;PMS7003;62865;53.146;23.172;2023-03-01T15:08:46;19.2;16.8;11.4
74432;PMS7003;62865;53.146;23.172;2023-03-01T15:13:29;20.6;17.6;11.8
74432;PMS7003;62865;53.146;23.172;2023-03-01T15:18:43;22.4;17.4;11
74432;PMS7003;62865;53.146;23.172;2023-03-01T15:23:36;25.8;20.5;12.5
74432;PMS7003;62865;53.146;23.172;2023-03-01T15:28:52;22;19.4;11.2
74432;PMS7003;62865;53.146;23.172;2023-03-01T15:33:29;22.4;19;11
74432;PMS7003;62865;53.146;23.172;2023-03-01T15:38:36;26.4;19.4;12.4
74432;PMS7003;62865;53.146;23.172;2023-03-01T15:43:50;21.2;17.2;11
74432;PMS7003;62865;53.146;23.172;2023-03-01T15:48:28;27;19.2;12.2
74432;PMS7003;62865;53.146;23.172;2023-03-01T15:54:05;24;20.4;12.2
74432;PMS7003;62865;53.146;23.172;2023-03-01T15:58:28;23.6;19.6;12.6
74432;PMS7003;62865;53.146;23.172;2023-03-01T16:03:28;24.2;20;12
74432;PMS7003;62865;53.146;23.172;2023-03-01T16:08:28;24.6;19;13.2
74432;PMS7003;62865;53.146;23.172;2023-03-01T16:13:28;28;21.6;13.4
74432;PMS7003;62865;53.146;23.172;2023-03-01T16:18:40;26.8;20.4;11.6
74432;PMS7003;62865;53.146;23.172;2023-03-01T16:23:38;23.2;19.4;12.2
74432;PMS7003;62865;53.146;23.172;2023-03-01T16:28:28;24.2;21;11.8
74432;PMS7003;62865;53.146;23.172;2023-03-01T16:33:28;28.2;20.4;12.6
74432;PMS7003;62865;53.146;23.172;2023-03-01T16:38:36;27.8;20.8;12.2
74432;PMS7003;62865;53.146;23.172;2023-03-01T16:43:28;30.8;24.8;14.2
74432;PMS7003;62865;53.146;23.172;2023-03-01T16:48:38;33.2;25.6;16.4
74432;PMS7003;62865;53.146;23.172;2023-03-01T16:53:36;31.4;27.4;15.8
74432;PMS7003;62865;53.146;23.172;2023-03-01T16:58:28;31.2;24.2;15.6
74432;PMS7003;62865;53.146;23.172;2023-03-01T17:03:40;31.2;24.2;13.8
74432;PMS7003;62865;53.146;23.172;2023-03-01T17:08:40;32.2;26.4;15.2
74432;PMS7003;62865;53.146;23.172;2023-03-01T17:13:28;32.6;26;15
74432;PMS7003;62865;53.146;23.172;2023-03-01T17:18:40;35.6;27.6;16.6
74432;PMS7003;62865;53.146;23.172;2023-03-01T17:23:28;31.8;28.2;16.2
74432;PMS7003;62865;53.146;23.172;2023-03-01T17:28:38;26.2;22.4;14.2
74432;PMS7003;62865;53.146;23.172;2023-03-01T17:33:30;29.4;24.6;14.6
74432;PMS7003;62865;53.146;23.172;2023-03-01T17:38:48;32.6;25.2;13.6
74432;PMS7003;62865;53.146;23.172;2023-03-01T17:43:30;28.8;25.6;14.4
74432;PMS7003;62865;53.146;23.172;2023-03-01T17:48:42;23.8;19.6;11.6
74432;PMS7003;62865;53.146;23.172;2023-03-01T17:54:00;30.4;23;14
74432;PMS7003;62865;53.146;23.172;2023-03-01T17:58:54;25.6;22;14.4
74432;PMS7003;62865;53.146;23.172;2023-03-01T18:03:40;33.4;26.2;14.2
74432;PMS7003;62865;53.146;23.172;2023-03-01T18:08:42;31.6;25.4;13
74432;PMS7003;62865;53.146;23.172;2023-03-01T18:13:30;30;24.8;14
74432;PMS7003;62865;53.146;23.172;2023-03-01T18:18:38;27.8;23.4;13
74432;PMS7003;62865;53.146;23.172;2023-03-01T18:23:30;29.4;24.4;14
74432;PMS7003;62865;53.146;23.172;2023-03-01T18:28:40;33.6;28;14.2
74432;PMS7003;62865;53.146;23.172;2023-03-01T18:33:42;32.6;27.2;15.2
74432;PMS7003;62865;53.146;23.172;2023-03-01T18:38:30;31.2;24.8;13.6
74432;PMS7003;62865;53.146;23.172;2023-03-01T18:43:54;31.6;24;13.8
74432;PMS7003;62865;53.146;23.172;2023-03-01T18:48:30;35.8;28.6;15
74432;PMS7003;62865;53.146;23.172;2023-03-01T18:53:48;33.4;27.8;15.4
74432;PMS7003;62865;53.146;23.172;2023-03-01T18:58:42;35;29;14.6
74432;PMS7003;62865;53.146;23.172;2023-03-01T19:03:40;39.2;31.8;15.8
74432;PMS7003;62865;53.146;23.172;2023-03-01T19:08:30;36;28.4;15.6
74432;PMS7003;62865;53.146;23.172;2023-03-01T19:13:30;36.6;31.8;18.2
74432;PMS7003;62865;53.146;23.172;2023-03-01T19:18:48;43.4;34.2;18
74432;PMS7003;62865;53.146;23.172;2023-03-01T19:23:42;44.2;36;19.8
74432;PMS7003;62865;53.146;23.172;2023-03-01T19:28:28;46.4;36.2;20.8
74432;PMS7003;62865;53.146;23.172;2023-03-01T19:33:48;46.6;38.6;19.8
74432;PMS7003;62865;53.146;23.172;2023-03-01T19:38:28;46.2;37;20.4
74432;PMS7003;62865;53.146;23.172;2023-03-01T19:43:28;47.3;36.3;19.8
74432;PMS7003;62865;53.146;23.172;2023-03-01T19:48:28;54.2;41.8;22.4
74432;PMS7003;62865;53.146;23.172;2023-03-01T19:53:50;44.6;37.4;21
74432;PMS7003;62865;53.146;23.172;2023-03-01T19:58:36;41;33.8;18
74432;PMS7003;62865;53.146;23.172;2023-03-01T20:03:52;38.8;32.2;17
74432;PMS7003;62865;53.146;23.172;2023-03-01T20:08:28;43.6;35.6;19.6
74432;PMS7003;62865;53.146;23.172;2023-03-01T20:13:28;48.4;39.6;21.2
74432;PMS7003;62865;53.146;23.172;2023-03-01T20:18:40;46;36;20.2
74432;PMS7003;62865;53.146;23.172;2023-03-01T20:23:48;41.2;35.6;19.2
74432;PMS7003;62865;53.146;23.172;2023-03-01T20:28:42;39.6;34;17.8
74432;PMS7003;62865;53.146;23.172;2023-03-01T20:33:54;37.6;29.8;16.4
74432;PMS7003;62865;53.146;23.172;2023-03-01T20:38:40;41.8;33;18.4
74432;PMS7003;62865;53.146;23.172;2023-03-01T20:43:40;36.6;29.8;17.2
74432;PMS7003;62865;53.146;23.172;2023-03-01T20:48:36;38.4;29.8;16.2
74432;PMS7003;62865;53.146;23.172;2023-03-01T20:53:28;34.6;28;16.2
74432;PMS7003;62865;53.146;23.172;2023-03-01T20:58:48;35.4;28.4;15.6
74432;PMS7003;62865;53.146;23.172;2023-03-01T21:03:40;31.2;23.2;13.2
74432;PMS7003;62865;53.146;23.172;2023-03-01T21:08:28;31;24.6;13.6
74432;PMS7003;62865;53.146;23.172;2023-03-01T21:13:36;32.6;27.6;16.2
74432;PMS7003;62865;53.146;23.172;2023-03-01T21:18:30;36.2;28;15.4
74432;PMS7003;62865;53.146;23.172;2023-03-01T21:23:31;35.8;29.6;17.6
74432;PMS7003;62865;53.146;23.172;2023-03-01T21:28:42;35.2;28.2;16.2
74432;PMS7003;62865;53.146;23.172;2023-03-01T21:33:28;38.6;31.2;16.6
74432;PMS7003;62865;53.146;23.172;2023-03-01T21:38:46;36.2;29.2;16.4
74432;PMS7003;62865;53.146;23.172;2023-03-01T21:43:28;34.4;29.2;15.6
74432;PMS7003;62865;53.146;23.172;2023-03-01T21:49:14;37.2;31.2;17.4
74432;PMS7003;62865;53.146;23.172;2023-03-01T21:53:38;33;28;15.4
74432;PMS7003;62865;53.146;23.172;2023-03-01T21:58:30;33.6;26.8;15
74432;PMS7003;62865;53.146;23.172;2023-03-01T22:03:38;32.6;26.6;15.6
74432;PMS7003;62865;53.146;23.172;2023-03-01T22:08:28;36;31.6;18.6
74432;PMS7003;62865;53.146;23.172;2023-03-01T22:13:38;33.8;26.4;15.4
74432;PMS7003;62865;53.146;23.172;2023-03-01T22:18:40;36.2;31.6;17.4
74432;PMS7003;62865;53.146;23.172;2023-03-01T22:23:52;37.8;29.2;16.2
74432;PMS7003;62865;53.146;23.172;2023-03-01T22:28:36;36;30.6;16.4
74432;PMS7003;62865;53.146;23.172;2023-03-01T22:33:40;39.2;32.4;17
74432;PMS7003;62865;53.146;23.172;2023-03-01T22:38:50;36;29.4;15
74432;PMS7003;62865;53.146;23.172;2023-03-01T22:43:28;28;24.2;13.6
74432;PMS7003;62865;53.146;23.172;2023-03-01T22:48:28;33.2;26.4;14.8
74432;PMS7003;62865;53.146;23.172;2023-03-01T22:53:48;31.6;23.6;13.6
74432;PMS7003;62865;53.146;23.172;2023-03-01T22:58:28;31;25.4;14.4
74432;PMS7003;62865;53.146;23.172;2023-03-01T23:03:38;29.8;24.6;14.4
74432;PMS7003;62865;53.146;23.172;2023-03-01T23:08:40;30.4;23.4;13.4
74432;PMS7003;62865;53.146;23.172;2023-03-01T23:13:28;31.6;24.6;13.6
74432;PMS7003;62865;53.146;23.172;2023-03-01T23:18:36;24.4;22.4;13
74432;PMS7003;62865;53.146;23.172;2023-03-01T23:23:48;27.4;19.8;12
74432;PMS7003;62865;53.146;23.172;2023-03-01T23:28:50;28;21.8;12.4
74432;PMS7003;62865;53.146;23.172;2023-03-01T23:34:04;28.2;23.4;12.4
74432;PMS7003;62865;53.146;23.172;2023-03-01T23:38:28;20.8;17.2;10.4
74432;PMS7003;62865;53.146;23.172;2023-03-01T23:43:48;23.8;19.4;10.8
74432;PMS7003;62865;53.146;23.172;2023-03-01T23:48:28;27.2;24.6;12.2
74432;PMS7003;62865;53.146;23.172;2023-03-01T23:53:51;23.8;19;10.6
74432;PMS7003;62865;53.146;23.172;2023-03-01T23:58:40;20.4;17.2;10.8
